Funks Grove, Illinois
Current Conditions -  °F | °C
As of 5:56 AM on Monday 20 Oct 2014 (Local Time) from KBMI Reporting Station
Clear Clear  
Wind Chill: 44°   Ceiling: Unl
Heat Index: 49°   Visibility: 10mi
Dew Point: 46°   Wind: 13mph
Humidity: 89%   Direction: 220°SW
Pressure: 29.89"   Gusts: NA
Location:  40.3393°N, 89.1495°W
Report Text: KBMI 201056Z 22011KT 10SM CLR 09/08 A2989 RMK AO2 T00940077 SLP122
Loading
Personal Weather Stations






























Interactive Weather Map
Tropical Storm Tracking
New forecast layout! Learn more

10-Day Weather Forecast

Advertisements
Track Severe Weather on mobile